createdAt,value
2018-06-08T18:07:26.370Z,33.10
2018-06-08T18:09:55.186Z,33.23
2018-06-08T18:12:24.104Z,32.33
2018-06-08T18:14:53.784Z,36.63
2018-06-08T18:17:22.934Z,35.77
2018-06-08T18:19:51.927Z,33.73
2018-06-08T18:22:22.031Z,37.67
2018-06-08T18:24:52.788Z,36.50
2018-06-08T18:27:22.367Z,33.43
2018-06-08T18:29:51.417Z,37.17
2018-06-08T18:32:20.899Z,37.03
2018-06-08T18:34:50.301Z,38.77
2018-06-08T18:37:24.595Z,35.90
2018-06-08T18:39:58.074Z,37.60
2018-06-08T18:42:28.319Z,40.27
2018-06-08T18:45:00.286Z,38.70
2018-06-08T18:47:30.431Z,38.10
2018-06-08T18:50:00.560Z,36.97
2018-06-08T18:52:30.391Z,39.53
2018-06-08T18:55:00.449Z,38.83
2018-06-08T18:57:30.142Z,40.10
2018-06-08T19:00:01.146Z,39.87
2018-06-08T19:02:31.354Z,35.93
2018-06-08T19:05:01.072Z,37.03
2018-06-08T19:07:31.930Z,35.27
2018-06-08T19:10:02.165Z,36.67
2018-06-08T19:12:32.058Z,38.13
2018-06-08T19:15:02.294Z,40.40
2018-06-08T19:17:34.009Z,40.20
2018-06-08T19:20:03.365Z,41.13
2018-06-08T19:22:32.654Z,39.27
2018-06-08T19:25:01.618Z,40.60
2018-06-08T19:27:30.628Z,37.43
2018-06-08T19:29:59.975Z,39.07
2018-06-08T19:32:29.457Z,37.80
2018-06-08T19:34:58.345Z,37.10
2018-06-08T19:37:26.795Z,37.10
2018-06-08T19:39:59.279Z,34.90
2018-06-08T19:42:29.269Z,36.73
2018-06-08T19:44:58.375Z,35.50
2018-06-08T19:47:27.226Z,38.73
2018-06-08T19:49:55.924Z,36.00
2018-06-08T19:52:25.015Z,37.60
2018-06-08T19:54:53.861Z,33.37
2018-06-08T19:57:29.290Z,36.20
2018-06-08T19:59:58.284Z,36.70
2018-06-08T20:02:27.268Z,37.67
2018-06-08T20:04:59.742Z,38.17
2018-06-08T20:07:34.579Z,38.33
2018-06-08T20:10:05.077Z,35.33
2018-06-08T20:12:39.189Z,36.00
2018-06-08T20:15:08.919Z,37.77
2018-06-08T20:17:38.252Z,39.13
2018-06-08T20:20:08.384Z,41.37
2018-06-08T20:22:37.943Z,37.20
2018-06-08T20:25:07.340Z,40.10
2018-06-08T20:27:36.352Z,42.80
2018-06-08T20:30:05.510Z,40.10
2018-06-08T20:32:34.327Z,39.07
2018-06-08T20:35:03.232Z,43.83
2018-06-08T20:37:33.117Z,40.20
2018-06-08T20:40:02.501Z,42.37
2018-06-08T20:42:31.728Z,42.67
2018-06-08T20:45:01.359Z,43.13
2018-06-08T20:47:30.638Z,38.97
2018-06-08T20:50:00.152Z,40.40
2018-06-08T20:52:29.598Z,39.33
2018-06-08T20:54:58.303Z,43.67
2018-06-08T20:57:29.072Z,38.43
2018-06-08T20:59:57.727Z,38.43
2018-06-08T21:02:32.490Z,38.97
2018-06-08T21:05:01.457Z,43.30
2018-06-08T21:07:32.067Z,43.27
2018-06-08T21:10:01.553Z,42.47
2018-06-08T21:12:30.199Z,42.83
2018-06-08T21:14:59.417Z,42.47
2018-06-08T21:17:28.549Z,44.60
2018-06-08T21:19:57.215Z,48.47
2018-06-08T21:22:25.923Z,44.07
2018-06-08T21:24:54.559Z,46.33
2018-06-08T21:27:23.233Z,44.20
2018-06-08T21:29:51.855Z,46.10
2018-06-08T21:32:20.473Z,44.10
2018-06-08T21:34:49.116Z,48.23
2018-06-08T21:37:17.802Z,46.10
2018-06-08T21:39:46.872Z,46.73
2018-06-08T21:42:16.382Z,45.43
2018-06-08T21:44:45.546Z,47.13
2018-06-08T21:47:15.040Z,45.60
2018-06-08T21:49:44.979Z,43.17
2018-06-08T21:52:14.812Z,50.00
2018-06-08T21:54:45.443Z,44.40
2018-06-08T21:57:15.148Z,44.53
2018-06-08T21:59:44.658Z,45.80
2018-06-08T22:02:14.411Z,46.13
2018-06-08T22:04:43.990Z,47.10
2018-06-08T22:07:13.570Z,43.20
2018-06-08T22:09:43.535Z,43.10
2018-06-08T22:12:13.165Z,43.20
2018-06-08T22:14:42.945Z,45.20
2018-06-08T22:17:12.811Z,48.70
2018-06-08T22:19:42.664Z,47.67
2018-06-08T22:22:12.416Z,53.00
2018-06-08T22:24:42.395Z,46.93
2018-06-08T22:27:12.163Z,51.13
2018-06-08T22:29:42.676Z,47.17
2018-06-08T22:32:12.385Z,48.53
2018-06-08T22:34:42.923Z,50.13
2018-06-08T22:37:12.875Z,49.97
2018-06-08T22:39:42.435Z,47.93
2018-06-08T22:42:12.557Z,49.87
2018-06-08T22:44:42.405Z,50.70
2018-06-08T22:47:12.110Z,49.97
2018-06-08T22:49:42.639Z,48.63
2018-06-08T22:52:12.426Z,52.97
2018-06-08T22:54:42.241Z,51.23
2018-06-08T22:57:12.290Z,53.57
2018-06-08T22:59:42.832Z,46.43
2018-06-08T23:02:12.639Z,54.67
2018-06-08T23:04:42.745Z,53.40
2018-06-08T23:07:12.844Z,47.80
2018-06-08T23:09:43.829Z,53.23
2018-06-08T23:12:13.536Z,52.43
2018-06-08T23:14:43.367Z,51.33
2018-06-08T23:17:13.018Z,51.67
2018-06-08T23:19:43.509Z,50.80
2018-06-08T23:22:13.885Z,52.73
2018-06-08T23:24:43.519Z,48.10
2018-06-08T23:27:15.300Z,53.63
2018-06-08T23:29:45.491Z,52.37
2018-06-08T23:32:15.108Z,54.27
2018-06-08T23:34:44.704Z,52.40
2018-06-08T23:37:13.899Z,50.80
2018-06-08T23:39:43.451Z,55.70
2018-06-08T23:42:16.911Z,53.50
2018-06-08T23:44:46.338Z,53.83
2018-06-08T23:47:15.936Z,54.20
2018-06-08T23:49:45.570Z,52.50
2018-06-08T23:52:15.086Z,54.20
2018-06-08T23:54:45.573Z,57.93
2018-06-08T23:57:15.049Z,54.20
2018-06-08T23:59:44.504Z,55.47
